Time;durP1;ratioP1;P1;durP2;ratioP2;P2;SDS_P1;SDS_P2;PMS_P1;PMS_P2;Temp;Humidity;BMP_temperature;BMP_pressure;BME280_temperature;BME280_humidity;BME280_pressure;Samples;Min_cycle;Max_cycle;Signal;HPM_P1;HPM_P2
2021/08/31 00:00:03;;;;;;;3.20;2.63;;;;;;;;;;5113023;28;20485;-59
2021/08/31 00:02:28;;;;;;;2.88;2.40;;;;;;;;;;5112976;28;20051;-59
2021/08/31 00:04:53;;;;;;;4.20;3.22;;;;;;;;;;5094529;28;20084;-59
2021/08/31 00:07:18;;;;;;;3.72;3.00;;;;;;;;;;5112708;28;20470;-59
2021/08/31 00:09:44;;;;;;;4.72;3.40;;;;;;;;;;5112377;28;20023;-58
2021/08/31 00:12:09;;;;;;;2.45;2.25;;;;;;;;;;5112627;28;20520;-59
2021/08/31 00:14:35;;;;;;;3.72;3.42;;;;;;;;;;5112736;28;20273;-58
2021/08/31 00:17:00;;;;;;;4.63;4.20;;;;;;;;;;5112647;28;20016;-58
2021/08/31 00:19:26;;;;;;;4.72;3.63;;;;;;;;;;5112209;28;20103;-57
2021/08/31 00:21:51;;;;;;;6.95;4.07;;;;;;;;;;5112287;28;20023;-58
2021/08/31 00:24:16;;;;;;;4.18;3.72;;;;;;;;;;5111765;28;20026;-58
2021/08/31 00:26:42;;;;;;;5.93;4.35;;;;;;;;;;5112520;28;20026;-58
2021/08/31 00:29:07;;;;;;;4.90;4.20;;;;;;;;;;5112378;28;20449;-57
2021/08/31 00:31:32;;;;;;;4.18;3.78;;;;;;;;;;5112578;28;20031;-59
2021/08/31 00:33:57;;;;;;;4.00;3.60;;;;;;;;;;5112282;28;20012;-58
2021/08/31 00:36:22;;;;;;;4.32;3.85;;;;;;;;;;5112645;28;20028;-58
2021/08/31 00:38:48;;;;;;;5.07;4.50;;;;;;;;;;5112034;28;20386;-58
2021/08/31 00:41:13;;;;;;;4.45;4.03;;;;;;;;;;5112038;28;20016;-58
2021/08/31 00:43:48;;;;;;;4.53;4.05;;;;;;;;;;5096435;28;20024;-58
2021/08/31 00:46:13;;;;;;;6.13;5.53;;;;;;;;;;5111585;28;20032;-58
2021/08/31 00:48:39;;;;;;;5.85;5.15;;;;;;;;;;5111907;28;20024;-58
2021/08/31 00:51:04;;;;;;;6.60;5.75;;;;;;;;;;5112053;28;20024;-58
2021/08/31 00:53:29;;;;;;;6.68;5.03;;;;;;;;;;5111907;28;20026;-58
2021/08/31 00:55:55;;;;;;;7.78;5.70;;;;;;;;;;5112248;28;20023;-58
2021/08/31 00:58:20;;;;;;;6.90;6.18;;;;;;;;;;5112340;28;20023;-58
2021/08/31 01:00:45;;;;;;;7.18;6.13;;;;;;;;;;5112172;28;20490;-58
2021/08/31 01:03:10;;;;;;;7.13;6.38;;;;;;;;;;5112425;28;20126;-58
2021/08/31 01:05:35;;;;;;;9.40;7.32;;;;;;;;;;5112108;28;20106;-59
2021/08/31 01:08:01;;;;;;;8.65;7.05;;;;;;;;;;5111985;28;20024;-58
2021/08/31 01:10:26;;;;;;;9.88;8.50;;;;;;;;;;5111587;28;20420;-58
2021/08/31 01:12:53;;;;;;;14.70;9.15;;;;;;;;;;5112974;28;20058;-58
2021/08/31 01:15:19;;;;;;;10.48;8.80;;;;;;;;;;5115964;28;20024;-59
2021/08/31 01:17:44;;;;;;;13.75;11.05;;;;;;;;;;5116513;28;20166;-58
2021/08/31 01:20:09;;;;;;;15.40;10.73;;;;;;;;;;5134087;27;20110;-59
2021/08/31 01:22:35;;;;;;;12.85;9.85;;;;;;;;;;5119724;27;20016;-59
2021/08/31 01:25:04;;;;;;;10.27;8.18;;;;;;;;;;5115938;28;20435;-59
2021/08/31 01:27:29;;;;;;;12.57;10.45;;;;;;;;;;5115867;28;20031;-58
2021/08/31 01:29:55;;;;;;;12.43;9.90;;;;;;;;;;5115795;28;20034;-59
2021/08/31 01:32:21;;;;;;;11.85;9.45;;;;;;;;;;5116116;28;20032;-60
2021/08/31 01:34:46;;;;;;;13.20;10.00;;;;;;;;;;5115235;28;20027;-59
2021/08/31 01:37:11;;;;;;;10.63;8.20;;;;;;;;;;5116026;28;20031;-58
2021/08/31 01:39:37;;;;;;;8.52;7.22;;;;;;;;;;5115557;28;20015;-60
2021/08/31 01:42:02;;;;;;;9.77;8.00;;;;;;;;;;5115623;28;20040;-59
2021/08/31 01:44:27;;;;;;;10.63;8.20;;;;;;;;;;5115392;28;20016;-59
2021/08/31 01:46:53;;;;;;;8.02;6.63;;;;;;;;;;5115914;28;20385;-59
2021/08/31 01:49:18;;;;;;;6.95;5.00;;;;;;;;;;5098315;28;20386;-58
2021/08/31 01:51:44;;;;;;;6.20;5.57;;;;;;;;;;5115454;28;20134;-59
2021/08/31 01:54:09;;;;;;;5.50;4.57;;;;;;;;;;5115228;28;20022;-59
2021/08/31 01:56:34;;;;;;;3.53;3.20;;;;;;;;;;5115384;28;20505;-59
2021/08/31 01:58:59;;;;;;;3.70;2.20;;;;;;;;;;5115517;28;20050;-59
2021/08/31 02:01:25;;;;;;;2.70;2.50;;;;;;;;;;5115369;28;20538;-59
2021/08/31 02:03:50;;;;;;;3.70;3.28;;;;;;;;;;5115486;28;20458;-59
2021/08/31 02:06:15;;;;;;;4.82;3.85;;;;;;;;;;5115379;28;20023;-58
2021/08/31 02:08:40;;;;;;;4.18;3.78;;;;;;;;;;5114582;28;20023;-59
2021/08/31 02:11:05;;;;;;;6.88;5.22;;;;;;;;;;5114863;28;20025;-59
2021/08/31 02:13:31;;;;;;;7.68;6.18;;;;;;;;;;5115236;28;20466;-58
2021/08/31 02:15:56;;;;;;;9.82;7.35;;;;;;;;;;5096739;28;20022;-59
2021/08/31 02:18:21;;;;;;;9.25;6.93;;;;;;;;;;5114890;28;20015;-59
2021/08/31 02:20:46;;;;;;;9.68;6.57;;;;;;;;;;5114687;28;20023;-58
2021/08/31 02:23:11;;;;;;;10.73;7.63;;;;;;;;;;5114354;28;20031;-59
2021/08/31 02:25:37;;;;;;;8.98;7.95;;;;;;;;;;5115017;28;20102;-59
2021/08/31 02:28:02;;;;;;;11.95;9.23;;;;;;;;;;5114344;28;20043;-58
2021/08/31 02:30:27;;;;;;;11.40;8.35;;;;;;;;;;5114231;28;20019;-58
2021/08/31 02:32:53;;;;;;;13.02;8.95;;;;;;;;;;5114664;28;20050;-59
2021/08/31 02:35:18;;;;;;;11.90;10.02;;;;;;;;;;5113262;28;20068;-59
2021/08/31 02:37:43;;;;;;;13.48;9.68;;;;;;;;;;5114537;28;20069;-59
2021/08/31 02:40:09;;;;;;;13.50;10.13;;;;;;;;;;5114018;28;20094;-59
2021/08/31 02:42:35;;;;;;;11.60;9.07;;;;;;;;;;5114431;28;20058;-59
2021/08/31 02:45:00;;;;;;;14.50;9.90;;;;;;;;;;5115122;28;20024;-59
2021/08/31 02:47:26;;;;;;;12.35;9.98;;;;;;;;;;5096134;28;20034;-59
2021/08/31 02:49:51;;;;;;;11.68;9.18;;;;;;;;;;5113890;28;20099;-60
2021/08/31 02:52:16;;;;;;;13.23;9.77;;;;;;;;;;5114054;28;20038;-59
2021/08/31 02:54:41;;;;;;;12.75;9.02;;;;;;;;;;5114163;28;20103;-59
2021/08/31 02:57:07;;;;;;;13.70;9.43;;;;;;;;;;5114145;28;20104;-58
2021/08/31 02:59:32;;;;;;;9.90;8.63;;;;;;;;;;5114588;28;20095;-59
2021/08/31 03:04:22;;;;;;;12.02;10.77;;;;;;;;;;5114026;28;20016;-59
2021/08/31 03:06:48;;;;;;;11.63;9.82;;;;;;;;;;5113836;28;20499;-59
2021/08/31 03:09:13;;;;;;;13.88;9.90;;;;;;;;;;5113808;28;20027;-59
2021/08/31 03:11:38;;;;;;;11.18;9.85;;;;;;;;;;5113381;28;20019;-59
2021/08/31 03:14:03;;;;;;;11.13;8.98;;;;;;;;;;5114231;28;20382;-59
2021/08/31 03:16:28;;;;;;;11.85;9.73;;;;;;;;;;5113339;28;20164;-59
2021/08/31 03:18:54;;;;;;;12.55;10.15;;;;;;;;;;5114327;28;20012;-59
2021/08/31 03:21:19;;;;;;;15.25;10.50;;;;;;;;;;5113307;28;20020;-59
2021/08/31 03:23:44;;;;;;;14.43;9.50;;;;;;;;;;5113486;28;20390;-59
2021/08/31 03:26:09;;;;;;;13.23;10.75;;;;;;;;;;5113543;28;20016;-59
2021/08/31 03:28:34;;;;;;;11.55;9.05;;;;;;;;;;5113637;28;20109;-58
2021/08/31 03:31:00;;;;;;;10.93;9.00;;;;;;;;;;5113515;28;20076;-58
2021/08/31 03:33:25;;;;;;;13.63;10.13;;;;;;;;;;5113607;28;20095;-58
2021/08/31 03:35:50;;;;;;;13.48;10.10;;;;;;;;;;5112673;28;20373;-58
2021/08/31 03:38:15;;;;;;;12.02;10.30;;;;;;;;;;5113318;28;20016;-59
2021/08/31 03:40:40;;;;;;;11.82;10.63;;;;;;;;;;5113092;28;20016;-58
2021/08/31 03:43:06;;;;;;;12.75;10.18;;;;;;;;;;5111048;28;20034;-58
2021/08/31 03:45:31;;;;;;;12.38;9.73;;;;;;;;;;5112815;28;20020;-59
2021/08/31 03:47:56;;;;;;;11.95;9.32;;;;;;;;;;5113282;28;20037;-57
2021/08/31 03:50:21;;;;;;;13.85;10.07;;;;;;;;;;5113052;28;20030;-58
2021/08/31 03:52:47;;;;;;;11.82;6.75;;;;;;;;;;5112736;28;20028;-59
2021/08/31 03:55:12;;;;;;;13.48;10.52;;;;;;;;;;5113163;28;20152;-58
2021/08/31 03:57:37;;;;;;;13.55;10.50;;;;;;;;;;5113095;28;20034;-58
2021/08/31 04:00:03;;;;;;;11.80;10.60;;;;;;;;;;5113139;28;20107;-58
2021/08/31 04:02:28;;;;;;;10.70;8.30;;;;;;;;;;5112695;28;20018;-58
2021/08/31 04:04:54;;;;;;;12.90;11.13;;;;;;;;;;5112890;28;20019;-58
2021/08/31 04:07:19;;;;;;;12.23;10.68;;;;;;;;;;5112621;28;20050;-58
2021/08/31 04:09:44;;;;;;;14.23;10.95;;;;;;;;;;5111872;28;20502;-58
2021/08/31 04:12:10;;;;;;;15.18;10.55;;;;;;;;;;5112141;28;20045;-58
2021/08/31 04:14:35;;;;;;;14.45;9.30;;;;;;;;;;5112826;28;20386;-58
2021/08/31 04:17:00;;;;;;;13.70;10.90;;;;;;;;;;5106991;28;20023;-57
2021/08/31 04:19:25;;;;;;;13.18;10.15;;;;;;;;;;5112514;28;20373;-56
2021/08/31 04:21:51;;;;;;;14.43;11.38;;;;;;;;;;5112309;28;20025;-57
2021/08/31 04:24:16;;;;;;;15.52;10.65;;;;;;;;;;5112330;28;20019;-58
2021/08/31 04:26:41;;;;;;;15.75;11.00;;;;;;;;;;5112576;28;20020;-59
2021/08/31 04:29:06;;;;;;;13.85;11.27;;;;;;;;;;5111831;28;20045;-58
2021/08/31 04:31:31;;;;;;;16.77;11.57;;;;;;;;;;5112277;28;20068;-59
2021/08/31 04:33:57;;;;;;;17.73;12.05;;;;;;;;;;5112339;28;20374;-58
2021/08/31 04:36:22;;;;;;;15.15;11.23;;;;;;;;;;5112454;28;20394;-58
2021/08/31 04:38:47;;;;;;;13.68;11.38;;;;;;;;;;5112270;28;20102;-58
2021/08/31 04:41:12;;;;;;;15.95;11.80;;;;;;;;;;5093585;28;20020;-58
2021/08/31 04:43:38;;;;;;;12.27;11.00;;;;;;;;;;5112202;28;20023;-60
2021/08/31 04:46:03;;;;;;;15.90;11.40;;;;;;;;;;5112382;28;20027;-59
2021/08/31 04:48:28;;;;;;;15.80;11.95;;;;;;;;;;5111987;28;20080;-59
2021/08/31 04:50:54;;;;;;;15.73;11.98;;;;;;;;;;5111958;28;20023;-59
2021/08/31 04:53:20;;;;;;;11.43;10.18;;;;;;;;;;5111739;28;20088;-58
2021/08/31 04:55:45;;;;;;;16.30;11.48;;;;;;;;;;5112103;28;20024;-58
2021/08/31 04:58:11;;;;;;;14.75;12.13;;;;;;;;;;5111802;28;20041;-58
2021/08/31 05:00:36;;;;;;;13.80;10.23;;;;;;;;;;5112073;28;20011;-59
2021/08/31 05:03:01;;;;;;;13.30;11.60;;;;;;;;;;5112097;28;20015;-58
2021/08/31 05:05:26;;;;;;;13.48;11.27;;;;;;;;;;5112076;28;20076;-59
2021/08/31 05:07:51;;;;;;;18.15;13.10;;;;;;;;;;5111683;28;20024;-57
2021/08/31 05:10:17;;;;;;;16.55;12.65;;;;;;;;;;5111459;28;20052;-58
2021/08/31 05:12:42;;;;;;;15.23;11.40;;;;;;;;;;5111789;28;20038;-58
2021/08/31 05:15:08;;;;;;;11.82;9.90;;;;;;;;;;5111996;28;20099;-58
2021/08/31 05:17:34;;;;;;;14.98;11.68;;;;;;;;;;5112128;28;20050;-59
2021/08/31 05:19:59;;;;;;;14.02;12.07;;;;;;;;;;5111846;28;20462;-59
2021/08/31 05:22:26;;;;;;;14.90;11.98;;;;;;;;;;5111636;28;20012;-58
2021/08/31 05:24:52;;;;;;;14.52;11.93;;;;;;;;;;5111594;28;20016;-59
2021/08/31 05:27:17;;;;;;;14.32;12.32;;;;;;;;;;5111521;28;20043;-59
2021/08/31 05:29:42;;;;;;;13.27;9.77;;;;;;;;;;5111928;28;20075;-59
2021/08/31 05:32:07;;;;;;;15.65;12.55;;;;;;;;;;5111543;28;20032;-59
2021/08/31 05:34:33;;;;;;;16.90;14.32;;;;;;;;;;5111901;28;20031;-58
2021/08/31 05:36:58;;;;;;;17.88;13.93;;;;;;;;;;5111340;28;20454;-59
2021/08/31 05:39:25;;;;;;;15.05;11.00;;;;;;;;;;5111334;28;20129;-59
2021/08/31 05:41:50;;;;;;;14.90;12.38;;;;;;;;;;5111291;28;20466;-59
2021/08/31 05:44:15;;;;;;;14.02;12.02;;;;;;;;;;5111343;28;20024;-58
2021/08/31 05:46:40;;;;;;;17.10;13.68;;;;;;;;;;5111334;28;20016;-59
2021/08/31 05:49:06;;;;;;;14.57;11.57;;;;;;;;;;5105581;28;20023;-59
2021/08/31 05:51:31;;;;;;;18.38;14.02;;;;;;;;;;5108139;28;20020;-59
2021/08/31 05:53:56;;;;;;;16.40;12.65;;;;;;;;;;5111135;28;20050;-59
2021/08/31 05:56:22;;;;;;;13.25;10.52;;;;;;;;;;5111582;28;20020;-59
2021/08/31 05:58:47;;;;;;;17.20;12.73;;;;;;;;;;5112242;28;20386;-58
2021/08/31 06:01:12;;;;;;;18.17;12.07;;;;;;;;;;5113133;28;20023;-59
2021/08/31 06:03:37;;;;;;;15.43;11.10;;;;;;;;;;5115212;28;20019;-59
2021/08/31 06:06:03;;;;;;;15.85;12.80;;;;;;;;;;5114858;28;20061;-58
2021/08/31 06:08:31;;;;;;;15.95;12.35;;;;;;;;;;5114361;28;20046;-58
2021/08/31 06:10:56;;;;;;;13.57;10.52;;;;;;;;;;5114225;28;20039;-59
2021/08/31 06:13:21;;;;;;;13.30;10.25;;;;;;;;;;5114669;28;20386;-58
2021/08/31 06:15:46;;;;;;;14.20;12.00;;;;;;;;;;5113976;28;20077;-59
2021/08/31 06:18:12;;;;;;;12.88;11.23;;;;;;;;;;5117683;27;20023;-58
2021/08/31 06:20:37;;;;;;;16.08;11.43;;;;;;;;;;5104787;28;20047;-58
2021/08/31 06:23:02;;;;;;;12.70;10.82;;;;;;;;;;5114550;28;20386;-58
2021/08/31 06:25:27;;;;;;;12.70;10.90;;;;;;;;;;5114883;28;20062;-59
2021/08/31 06:27:53;;;;;;;9.15;6.50;;;;;;;;;;5114697;28;20059;-58
2021/08/31 06:30:18;;;;;;;12.73;11.18;;;;;;;;;;5114326;28;20118;-58
2021/08/31 06:32:43;;;;;;;14.00;11.50;;;;;;;;;;5114518;28;20027;-58
2021/08/31 06:35:09;;;;;;;13.93;11.40;;;;;;;;;;5114214;28;20079;-59
2021/08/31 06:37:35;;;;;;;12.55;7.85;;;;;;;;;;5114867;28;20051;-60
2021/08/31 06:40:00;;;;;;;12.35;10.18;;;;;;;;;;5114066;27;20412;-60
2021/08/31 06:42:25;;;;;;;13.02;11.63;;;;;;;;;;5114264;28;20019;-60
2021/08/31 06:44:50;;;;;;;9.30;8.05;;;;;;;;;;5114620;28;20032;-60
2021/08/31 06:47:15;;;;;;;11.25;9.20;;;;;;;;;;5114449;28;20453;-59
2021/08/31 06:49:41;;;;;;;10.43;8.63;;;;;;;;;;5114285;28;20015;-60
2021/08/31 06:52:07;;;;;;;9.40;8.50;;;;;;;;;;5114387;28;20051;-60
2021/08/31 06:54:32;;;;;;;11.13;9.80;;;;;;;;;;5113953;28;20030;-60
2021/08/31 06:56:57;;;;;;;10.85;9.75;;;;;;;;;;5114268;28;20015;-60
2021/08/31 06:59:23;;;;;;;11.00;9.88;;;;;;;;;;5114453;28;20016;-60
2021/08/31 07:01:48;;;;;;;10.57;9.48;;;;;;;;;;5113947;28;20016;-60
2021/08/31 07:04:13;;;;;;;9.55;6.03;;;;;;;;;;5114409;28;20015;-59
2021/08/31 07:06:38;;;;;;;8.85;7.95;;;;;;;;;;5113982;28;20016;-59
2021/08/31 07:09:05;;;;;;;7.25;6.55;;;;;;;;;;5113862;28;20032;-59
2021/08/31 07:11:30;;;;;;;9.05;7.72;;;;;;;;;;5112151;28;20048;-59
2021/08/31 07:13:55;;;;;;;7.43;6.60;;;;;;;;;;5113924;28;20023;-60
2021/08/31 07:16:20;;;;;;;7.70;6.78;;;;;;;;;;5113721;28;20024;-58
2021/08/31 07:18:46;;;;;;;7.50;6.85;;;;;;;;;;5114254;28;20019;-59
2021/08/31 07:21:11;;;;;;;7.93;7.00;;;;;;;;;;5113555;28;20386;-58
2021/08/31 07:23:36;;;;;;;9.63;7.80;;;;;;;;;;5113116;28;20020;-58
2021/08/31 07:26:01;;;;;;;10.48;8.77;;;;;;;;;;5113730;28;20026;-59
2021/08/31 07:28:27;;;;;;;10.32;9.32;;;;;;;;;;5113442;28;20486;-59
2021/08/31 07:30:52;;;;;;;10.10;8.52;;;;;;;;;;5113184;27;20036;-59
2021/08/31 07:33:17;;;;;;;14.07;9.85;;;;;;;;;;5113488;28;20032;-58
2021/08/31 07:35:44;;;;;;;12.98;9.82;;;;;;;;;;5113366;28;20041;-59
2021/08/31 07:38:09;;;;;;;11.25;9.55;;;;;;;;;;5112767;28;20011;-58
2021/08/31 07:40:34;;;;;;;12.13;10.32;;;;;;;;;;5112346;28;20084;-59
2021/08/31 07:42:59;;;;;;;14.82;9.23;;;;;;;;;;5113244;28;20462;-58
2021/08/31 07:45:25;;;;;;;12.20;10.00;;;;;;;;;;5113236;28;20424;-58
2021/08/31 07:47:50;;;;;;;12.27;9.98;;;;;;;;;;5113526;28;20458;-59
2021/08/31 07:50:15;;;;;;;15.48;12.40;;;;;;;;;;5112767;28;20054;-59
2021/08/31 07:52:41;;;;;;;12.35;10.95;;;;;;;;;;5113393;28;20019;-58
2021/08/31 07:55:07;;;;;;;11.18;8.50;;;;;;;;;;5133144;27;20137;-59
2021/08/31 07:57:34;;;;;;;12.65;11.35;;;;;;;;;;5111256;28;20095;-59
2021/08/31 07:59:59;;;;;;;13.40;11.02;;;;;;;;;;5112688;28;20019;-59
2021/08/31 08:02:24;;;;;;;11.43;9.52;;;;;;;;;;5112152;28;20016;-59
2021/08/31 08:04:51;;;;;;;11.27;8.93;;;;;;;;;;5113099;28;20070;-59
2021/08/31 08:07:16;;;;;;;10.05;7.38;;;;;;;;;;5112588;28;20042;-59
2021/08/31 08:09:41;;;;;;;8.48;6.85;;;;;;;;;;5109814;28;20398;-59
2021/08/31 08:12:07;;;;;;;7.50;6.47;;;;;;;;;;5112082;28;20458;-59
2021/08/31 08:14:32;;;;;;;6.45;5.40;;;;;;;;;;5111630;28;20031;-60
2021/08/31 08:16:57;;;;;;;5.38;4.88;;;;;;;;;;5112114;28;20484;-59
2021/08/31 08:19:22;;;;;;;6.00;5.47;;;;;;;;;;5111965;28;20500;-60
2021/08/31 08:21:47;;;;;;;7.65;5.68;;;;;;;;;;5093437;28;20020;-59
2021/08/31 08:24:13;;;;;;;7.57;6.57;;;;;;;;;;5111968;28;20020;-59
2021/08/31 08:26:38;;;;;;;9.10;8.20;;;;;;;;;;5112109;28;20486;-59
2021/08/31 08:29:04;;;;;;;9.35;8.35;;;;;;;;;;5111365;28;20074;-60
2021/08/31 08:31:32;;;;;;;10.07;8.63;;;;;;;;;;5112605;28;20019;-60
2021/08/31 08:33:57;;;;;;;9.65;8.75;;;;;;;;;;5112100;28;20087;-59
2021/08/31 08:36:23;;;;;;;9.75;8.60;;;;;;;;;;5110980;27;20027;-59
2021/08/31 08:38:48;;;;;;;11.77;9.95;;;;;;;;;;5111908;28;20019;-59
2021/08/31 08:41:13;;;;;;;10.85;9.75;;;;;;;;;;5112134;28;20027;-60
2021/08/31 08:43:38;;;;;;;8.38;6.53;;;;;;;;;;5111995;28;20012;-62
2021/08/31 08:46:05;;;;;;;10.13;8.25;;;;;;;;;;5112240;28;20023;-60
2021/08/31 08:48:31;;;;;;;9.27;7.20;;;;;;;;;;5111642;28;20418;-62
2021/08/31 08:50:57;;;;;;;11.55;9.50;;;;;;;;;;5111712;28;20023;-61
2021/08/31 08:53:25;;;;;;;10.73;9.63;;;;;;;;;;5111888;28;20105;-58
2021/08/31 08:55:50;;;;;;;11.43;10.25;;;;;;;;;;5113488;28;20543;-59
2021/08/31 08:58:15;;;;;;;12.13;9.10;;;;;;;;;;5099307;28;20051;-60
2021/08/31 09:01:02;;;;;;;10.18;9.15;;;;;;;;;;5112029;28;20026;-59
2021/08/31 09:03:27;;;;;;;10.27;8.93;;;;;;;;;;5111789;28;20398;-58
2021/08/31 09:06:06;;;;;;;10.48;8.85;;;;;;;;;;5111823;28;20108;-58
2021/08/31 09:08:32;;;;;;;11.55;9.57;;;;;;;;;;5110679;28;20062;-58
2021/08/31 09:10:57;;;;;;;11.15;9.27;;;;;;;;;;5111616;28;20053;-59
2021/08/31 09:13:22;;;;;;;9.27;8.30;;;;;;;;;;5111684;28;20038;-59
2021/08/31 09:15:48;;;;;;;10.43;7.97;;;;;;;;;;5114088;28;20105;-59
2021/08/31 09:18:16;;;;;;;7.97;7.18;;;;;;;;;;5130456;28;20057;-59
2021/08/31 09:20:41;;;;;;;8.63;7.47;;;;;;;;;;5111202;28;20016;-60
2021/08/31 09:23:08;;;;;;;9.25;8.20;;;;;;;;;;5110727;28;20359;-59
2021/08/31 09:25:38;;;;;;;9.85;7.72;;;;;;;;;;5111639;28;20032;-59
2021/08/31 09:28:22;;;;;;;9.77;7.78;;;;;;;;;;5092786;28;20044;-59
2021/08/31 09:31:10;;;;;;;8.68;7.60;;;;;;;;;;5109442;28;20343;-58
2021/08/31 09:33:40;;;;;;;8.25;6.78;;;;;;;;;;5103516;28;20047;-59
2021/08/31 09:36:08;;;;;;;8.45;7.65;;;;;;;;;;5115579;28;20111;-58
2021/08/31 09:38:38;;;;;;;8.40;7.47;;;;;;;;;;5096717;28;20169;-59
2021/08/31 09:41:03;;;;;;;9.30;8.20;;;;;;;;;;5114954;28;20019;-59
2021/08/31 09:43:28;;;;;;;9.00;7.90;;;;;;;;;;5115148;28;20012;-60
2021/08/31 09:45:54;;;;;;;9.07;8.13;;;;;;;;;;5115265;28;20031;-59
2021/08/31 09:48:20;;;;;;;8.60;7.70;;;;;;;;;;5115224;28;20039;-59
2021/08/31 09:50:58;;;;;;;8.57;7.72;;;;;;;;;;5114815;28;20032;-56
2021/08/31 09:53:23;;;;;;;9.05;7.97;;;;;;;;;;5114370;28;20020;-60
2021/08/31 09:55:50;;;;;;;8.55;7.22;;;;;;;;;;5114465;28;20077;-59
2021/08/31 09:58:25;;;;;;;8.93;6.95;;;;;;;;;;5114886;28;20027;-59
2021/08/31 10:00:52;;;;;;;7.95;7.10;;;;;;;;;;5115810;28;20068;-57
2021/08/31 10:03:19;;;;;;;8.20;7.40;;;;;;;;;;5115409;28;20027;-58
2021/08/31 10:05:45;;;;;;;8.88;8.02;;;;;;;;;;5114756;28;20107;-58
2021/08/31 10:08:11;;;;;;;8.95;8.05;;;;;;;;;;5115039;28;20016;-59
2021/08/31 10:10:37;;;;;;;8.38;7.40;;;;;;;;;;5115094;28;20359;-57
2021/08/31 10:13:07;;;;;;;7.78;6.93;;;;;;;;;;5114898;28;20098;-59
2021/08/31 10:15:36;;;;;;;7.88;6.97;;;;;;;;;;5112664;28;20058;-59
2021/08/31 10:18:01;;;;;;;7.15;6.35;;;;;;;;;;5114808;28;20020;-59
2021/08/31 10:20:27;;;;;;;6.70;5.15;;;;;;;;;;5114457;28;20064;-59
2021/08/31 10:22:53;;;;;;;7.95;6.90;;;;;;;;;;5114792;28;20016;-59
2021/08/31 10:25:22;;;;;;;7.30;6.60;;;;;;;;;;5113935;28;20063;-59
2021/08/31 10:27:48;;;;;;;7.32;6.63;;;;;;;;;;5113898;28;20060;-59
2021/08/31 10:30:16;;;;;;;8.48;7.18;;;;;;;;;;5114001;28;20248;-59
2021/08/31 10:32:42;;;;;;;7.32;6.63;;;;;;;;;;5114557;28;20024;-59
2021/08/31 10:35:07;;;;;;;8.05;6.47;;;;;;;;;;5112896;28;20030;-59
2021/08/31 10:37:46;;;;;;;6.43;5.78;;;;;;;;;;5112852;28;20099;-59
2021/08/31 10:40:29;;;;;;;8.55;7.20;;;;;;;;;;5114071;28;20016;-59
2021/08/31 10:42:55;;;;;;;8.65;7.40;;;;;;;;;;5111259;28;20539;-59
2021/08/31 10:45:32;;;;;;;9.73;7.53;;;;;;;;;;5110603;28;20027;-60
2021/08/31 10:47:58;;;;;;;6.95;6.32;;;;;;;;;;5113064;28;20191;-58
2021/08/31 10:50:27;;;;;;;10.27;8.82;;;;;;;;;;5110487;27;20053;-59
2021/08/31 10:53:04;;;;;;;9.32;7.78;;;;;;;;;;5119596;27;20039;-59
2021/08/31 10:55:31;;;;;;;8.82;7.97;;;;;;;;;;5113515;28;20024;-59
2021/08/31 10:58:04;;;;;;;9.18;8.13;;;;;;;;;;5109850;28;20040;-59
2021/08/31 11:00:29;;;;;;;8.15;7.43;;;;;;;;;;5111456;28;20016;-60
2021/08/31 11:02:57;;;;;;;11.43;8.70;;;;;;;;;;5113788;28;20106;-60
2021/08/31 11:05:25;;;;;;;10.30;8.63;;;;;;;;;;5113319;28;20030;-59
2021/08/31 11:07:51;;;;;;;12.35;8.80;;;;;;;;;;5102662;27;20034;-59
2021/08/31 11:10:24;;;;;;;9.07;8.18;;;;;;;;;;5112789;28;20016;-60
2021/08/31 11:12:49;;;;;;;10.88;8.93;;;;;;;;;;5112661;28;20027;-60
2021/08/31 11:15:21;;;;;;;9.85;8.07;;;;;;;;;;5113609;28;20050;-59
2021/08/31 11:17:51;;;;;;;8.88;7.97;;;;;;;;;;5112285;28;20027;-60
2021/08/31 11:20:16;;;;;;;9.68;8.68;;;;;;;;;;5104611;28;20030;-59
2021/08/31 11:22:42;;;;;;;9.25;8.35;;;;;;;;;;5098368;28;20378;-59
2021/08/31 11:25:08;;;;;;;8.88;7.95;;;;;;;;;;5112760;28;20030;-59
2021/08/31 11:27:49;;;;;;;10.10;8.98;;;;;;;;;;5111635;28;20026;-59
2021/08/31 11:30:14;;;;;;;10.07;8.80;;;;;;;;;;5110384;27;20106;-60
2021/08/31 11:32:40;;;;;;;9.98;8.98;;;;;;;;;;5113054;28;20103;-58
2021/08/31 11:35:05;;;;;;;9.02;8.13;;;;;;;;;;5113033;28;20122;-58
2021/08/31 11:37:30;;;;;;;9.15;8.07;;;;;;;;;;5112969;28;20095;-58
2021/08/31 11:39:57;;;;;;;11.40;8.95;;;;;;;;;;5112857;28;20102;-59
2021/08/31 11:42:22;;;;;;;9.77;8.88;;;;;;;;;;5111474;28;20751;-59
2021/08/31 11:44:57;;;;;;;7.88;7.15;;;;;;;;;;5093537;28;20068;-59
2021/08/31 11:47:23;;;;;;;8.45;7.60;;;;;;;;;;5106672;28;20031;-58
2021/08/31 11:49:48;;;;;;;7.53;6.93;;;;;;;;;;5111641;28;20042;-60
2021/08/31 11:52:18;;;;;;;9.85;7.75;;;;;;;;;;5110302;28;20102;-59
2021/08/31 11:54:55;;;;;;;7.78;7.07;;;;;;;;;;5111363;28;20023;-59
2021/08/31 11:57:21;;;;;;;9.00;8.07;;;;;;;;;;5107469;28;21217;-60
2021/08/31 11:59:48;;;;;;;9.00;8.10;;;;;;;;;;5110299;28;20462;-59
2021/08/31 12:02:17;;;;;;;8.20;7.40;;;;;;;;;;5112025;28;20034;-60
2021/08/31 12:04:44;;;;;;;8.18;7.38;;;;;;;;;;5103787;28;20051;-59
2021/08/31 12:07:10;;;;;;;7.32;6.63;;;;;;;;;;5098797;28;20028;-59
2021/08/31 12:09:37;;;;;;;7.07;6.38;;;;;;;;;;5110355;28;20527;-57
2021/08/31 12:12:03;;;;;;;8.25;7.45;;;;;;;;;;5111688;28;20390;-59
2021/08/31 12:14:28;;;;;;;7.85;7.15;;;;;;;;;;5111731;28;20012;-59
2021/08/31 12:16:53;;;;;;;8.40;6.97;;;;;;;;;;5112239;28;20391;-59
2021/08/31 12:19:25;;;;;;;7.85;7.15;;;;;;;;;;5112335;28;20089;-59
2021/08/31 12:22:03;;;;;;;8.13;7.38;;;;;;;;;;5111832;28;20019;-59
2021/08/31 12:24:29;;;;;;;8.07;7.28;;;;;;;;;;5111043;28;20020;-59
2021/08/31 12:27:04;;;;;;;7.80;7.13;;;;;;;;;;5112195;28;20027;-59
2021/08/31 12:29:29;;;;;;;;;;;;;;;;;;5111890;28;20104;-59
2021/08/31 12:32:09;;;;;;;9.63;8.23;;;;;;;;;;5112355;28;20574;-59
2021/08/31 12:34:34;;;;;;;7.40;6.70;;;;;;;;;;5111475;28;20306;-59
2021/08/31 12:36:59;;;;;;;10.48;9.25;;;;;;;;;;5112181;28;20020;-60
2021/08/31 12:39:26;;;;;;;7.65;6.82;;;;;;;;;;5111693;28;20026;-60
2021/08/31 12:41:52;;;;;;;10.20;8.30;;;;;;;;;;5122609;27;20023;-60
2021/08/31 12:44:18;;;;;;;9.82;8.80;;;;;;;;;;5115749;27;20025;-59
2021/08/31 12:46:44;;;;;;;9.25;8.35;;;;;;;;;;5093983;28;20081;-60
2021/08/31 12:49:14;;;;;;;8.63;7.70;;;;;;;;;;5112063;28;20023;-60
2021/08/31 12:51:39;;;;;;;8.38;7.57;;;;;;;;;;5111844;28;20020;-59
2021/08/31 12:54:04;;;;;;;7.78;6.93;;;;;;;;;;5111958;28;20494;-59
2021/08/31 12:56:30;;;;;;;10.32;7.65;;;;;;;;;;5112268;28;20023;-59
2021/08/31 12:59:03;;;;;;;9.48;7.90;;;;;;;;;;5111991;28;20019;-59
2021/08/31 13:01:28;;;;;;;7.38;6.30;;;;;;;;;;5109109;28;20466;-59
2021/08/31 13:03:54;;;;;;;7.50;6.80;;;;;;;;;;5111982;28;20110;-60
2021/08/31 13:06:31;;;;;;;10.98;6.80;;;;;;;;;;5111892;28;20069;-59
2021/08/31 13:08:57;;;;;;;8.27;7.03;;;;;;;;;;5112657;28;20081;-59
2021/08/31 13:11:23;;;;;;;8.50;6.25;;;;;;;;;;5112811;28;20390;-59
2021/08/31 13:13:48;;;;;;;8.95;7.13;;;;;;;;;;5115073;27;20014;-60
2021/08/31 13:16:13;;;;;;;8.45;7.63;;;;;;;;;;5116062;28;20122;-59
2021/08/31 13:18:39;;;;;;;8.48;7.60;;;;;;;;;;5115979;28;20123;-59
2021/08/31 13:21:04;;;;;;;9.60;8.40;;;;;;;;;;5115965;28;20313;-59
2021/08/31 13:23:29;;;;;;;8.25;7.28;;;;;;;;;;5115712;28;20016;-60
2021/08/31 13:25:54;;;;;;;8.85;8.00;;;;;;;;;;5116854;27;20128;-60
2021/08/31 13:28:20;;;;;;;8.88;7.65;;;;;;;;;;5115371;28;20084;-60
2021/08/31 13:30:45;;;;;;;8.75;7.45;;;;;;;;;;5124106;27;20038;-60
2021/08/31 13:33:10;;;;;;;8.05;6.78;;;;;;;;;;5120975;27;20019;-59
2021/08/31 13:35:36;;;;;;;9.10;7.82;;;;;;;;;;5119195;27;20028;-59
2021/08/31 13:38:01;;;;;;;9.60;8.73;;;;;;;;;;5131818;27;20020;-59
2021/08/31 13:40:27;;;;;;;8.10;7.22;;;;;;;;;;5119594;27;20030;-58
2021/08/31 13:42:52;;;;;;;7.93;6.82;;;;;;;;;;5112939;28;20145;-60
2021/08/31 13:45:17;;;;;;;9.20;6.85;;;;;;;;;;5106316;28;20024;-58
2021/08/31 13:47:42;;;;;;;8.25;7.43;;;;;;;;;;5114854;28;20438;-59
2021/08/31 13:50:08;;;;;;;7.37;5.53;;;;;;;;;;5115460;28;20069;-59
2021/08/31 13:52:33;;;;;;;8.10;7.30;;;;;;;;;;5114808;28;20631;-59
2021/08/31 13:54:58;;;;;;;7.45;6.03;;;;;;;;;;5114304;28;20123;-60
2021/08/31 13:57:29;;;;;;;7.53;6.75;;;;;;;;;;5115081;28;20063;-59
2021/08/31 13:59:54;;;;;;;8.77;6.95;;;;;;;;;;5109417;28;20117;-59
2021/08/31 14:02:20;;;;;;;8.40;6.38;;;;;;;;;;5102379;28;20102;-59
2021/08/31 14:04:45;;;;;;;9.30;7.28;;;;;;;;;;5114437;28;20020;-59
2021/08/31 14:07:10;;;;;;;7.88;7.10;;;;;;;;;;5114364;28;20447;-59
2021/08/31 14:09:36;;;;;;;8.55;7.75;;;;;;;;;;5113638;28;20015;-61
2021/08/31 14:12:01;;;;;;;9.15;7.45;;;;;;;;;;5113814;28;20020;-59
2021/08/31 14:14:26;;;;;;;8.90;7.50;;;;;;;;;;5114903;28;20496;-59
2021/08/31 14:16:51;;;;;;;9.45;7.65;;;;;;;;;;5114601;28;20027;-59
2021/08/31 14:19:17;;;;;;;9.05;7.82;;;;;;;;;;5114225;28;20064;-58
2021/08/31 14:21:42;;;;;;;8.95;7.97;;;;;;;;;;5114462;28;20103;-60
2021/08/31 14:24:07;;;;;;;7.63;6.93;;;;;;;;;;5112965;28;20061;-59
2021/08/31 14:26:32;;;;;;;8.30;7.13;;;;;;;;;;5114569;28;20153;-58
2021/08/31 14:28:58;;;;;;;9.30;7.38;;;;;;;;;;5114032;28;20119;-60